Terminal Aerodrome Forecast
Issued by NWS

Home | Current Version | Previous Version | Text Only | Print | Product List | Glossary Off
Versions: 1 2 3 4 5 6 7 8 9 10 11 12 13 14 15 16 17 18 19 20 21 22

000
FTUS43 KLOT 180912 AAA
TAFGYY
TAF AMD
KGYY 180912Z 1809/1906 23006KT 4SM -DZ BR OVC015
     FM181000 23006KT 3SM -DZ BR OVC007
      TEMPO 1811/1814 1SM -DZ BR
     FM181700 23012KT P6SM OVC015
     FM182000 23010KT P6SM BKN025
     FM190000 21010KT P6SM SKC WS020/27045KT=

USA.gov is the U.S. government's official web portal to all federal, state and local government web resources and services.